Time;durP1;ratioP1;P1;durP2;ratioP2;P2;SDS_P1;SDS_P2;PMS_P1;PMS_P2;Temp;Humidity;BMP_temperature;BMP_pressure;BME280_temperature;BME280_humidity;BME280_pressure;Samples;Min_cycle;Max_cycle;Signal;HPM_P1;HPM_P2
2022/11/14 00:00:10;;;;;;;;;29.50;25.25;;;;;11.82;71.02;101094.00;5038345;28;46299;-72
2022/11/14 00:02:36;;;;;;;;;24.00;22.00;;;;;11.78;70.96;101087.97;5038170;28;45565;-73
2022/11/14 00:05:02;;;;;;;;;25.25;24.25;;;;;11.77;71.62;101088.94;5038117;27;45564;-73
2022/11/14 00:07:32;;;;;;;;;26.50;26.50;;;;;11.69;71.00;101073.34;5038535;28;45386;-71
2022/11/14 00:09:57;;;;;;;;;38.00;31.50;;;;;11.66;71.44;101070.88;5037212;28;45354;-70
2022/11/14 00:12:23;;;;;;;;;37.50;32.00;;;;;11.68;71.12;101089.47;5037257;28;45439;-70
2022/11/14 00:14:48;;;;;;;;;34.00;31.75;;;;;11.65;71.78;101082.50;5037749;28;45597;-71
2022/11/14 00:17:14;;;;;;;;;36.00;33.25;;;;;11.24;71.56;101006.50;5037517;28;45450;-71
2022/11/14 00:19:40;;;;;;;;;39.25;35.00;;;;;11.59;71.47;101082.84;5036340;28;45555;-71
2022/11/14 00:22:05;;;;;;;;;35.25;30.75;;;;;11.44;71.48;101042.75;5033792;28;45421;-71
2022/11/14 00:24:31;;;;;;;;;33.00;32.00;;;;;11.61;71.46;101075.63;5034183;28;45371;-70
2022/11/14 00:26:57;;;;;;;;;24.75;24.75;;;;;11.58;71.65;101071.31;5034029;28;45426;-70
2022/11/14 00:29:22;;;;;;;;;27.00;26.75;;;;;11.37;71.80;101036.00;5015819;27;47134;-70
2022/11/14 00:31:48;;;;;;;;;34.00;31.25;;;;;11.55;71.63;101071.50;5033316;28;45446;-70
2022/11/14 00:34:13;;;;;;;;;29.75;28.00;;;;;11.51;71.13;101064.63;5034052;28;45353;-70
2022/11/14 00:36:38;;;;;;;;;38.75;32.50;;;;;11.31;71.54;101041.72;5034316;28;45455;-69
2022/11/14 00:39:04;;;;;;;;;40.50;33.25;;;;;11.49;71.75;101073.66;5032516;28;48589;-71
2022/11/14 00:41:29;;;;;;;;;30.25;29.00;;;;;11.46;71.75;101061.34;5034084;28;45374;-70
2022/11/14 00:43:55;;;;;;;;;34.75;31.25;;;;;11.42;71.64;101047.28;5033920;28;45451;-71
2022/11/14 00:46:20;;;;;;;;;37.00;28.75;;;;;11.22;71.31;101027.06;5034190;28;45255;-70
2022/11/14 00:48:45;;;;;;;;;25.00;19.50;;;;;11.32;71.83;101038.09;5033890;27;45289;-70
2022/11/14 00:51:10;;;;;;;;;40.25;34.00;;;;;11.24;71.85;101017.19;5033688;28;45372;-71
2022/11/14 00:53:36;;;;;;;;;28.00;26.50;;;;;11.17;71.61;101010.47;5032249;28;45423;-70
2022/11/14 00:56:04;;;;;;;;;21.00;17.25;;;;;11.49;72.06;101054.97;5033273;27;45423;-70
2022/11/14 00:58:29;;;;;;;;;30.25;26.75;;;;;11.46;71.68;101058.69;5032452;27;47420;-69
2022/11/14 01:00:54;;;;;;;;;32.00;30.50;;;;;11.29;71.71;101030.25;5033399;27;45306;-70
2022/11/14 01:03:20;;;;;;;;;33.50;26.75;;;;;11.43;71.78;101058.81;5031961;28;45326;-69
2022/11/14 01:05:48;;;;;;;;;29.25;27.75;;;;;11.37;71.85;101041.34;5033333;28;45306;-73
2022/11/14 01:08:16;;;;;;;;;34.50;29.75;;;;;11.45;71.83;101054.28;5033309;28;46666;-68
2022/11/14 01:10:44;;;;;;;;;25.00;25.00;;;;;11.37;72.76;101036.00;5033499;28;45404;-69
2022/11/14 01:13:10;;;;;;;;;26.25;26.25;;;;;11.23;72.58;101004.78;5035855;28;45348;-68
2022/11/14 01:15:45;;;;;;;;;26.00;24.25;;;;;10.84;71.78;100942.06;5035286;28;45395;-68
2022/11/14 01:18:14;;;;;;;;;31.75;28.75;;;;;11.51;72.01;101037.03;5036417;28;46689;-68
2022/11/14 01:20:41;;;;;;;;;25.25;24.75;;;;;11.54;72.29;101042.19;5037479;28;45257;-69
2022/11/14 01:23:08;;;;;;;;;29.25;22.25;;;;;11.45;71.63;101023.06;5037919;28;45344;-69
2022/11/14 01:25:35;;;;;;;;;32.00;30.75;;;;;11.31;71.71;100999.00;5037855;28;45424;-68
2022/11/14 01:28:01;;;;;;;;;33.25;30.25;;;;;11.57;71.97;101042.03;5038022;28;46254;-68
2022/11/14 01:30:26;;;;;;;;;30.50;30.00;;;;;11.47;71.77;101022.97;5037673;28;44872;-69
2022/11/14 01:32:52;;;;;;;;;31.25;26.50;;;;;11.23;71.69;100974.56;5036563;28;45374;-68
2022/11/14 01:35:17;;;;;;;;;33.00;30.50;;;;;11.40;71.74;100995.78;5019296;28;45346;-68
2022/11/14 01:37:42;;;;;;;;;32.75;29.50;;;;;11.45;71.98;100998.19;5036090;28;46734;-68
2022/11/14 01:40:08;;;;;;;;;31.25;29.50;;;;;11.45;71.70;101001.69;5038170;28;45405;-69
2022/11/14 01:42:34;;;;;;;;;25.75;24.25;;;;;11.61;71.60;101016.84;5038107;28;45325;-68
2022/11/14 01:44:59;;;;;;;;;32.50;26.50;;;;;11.53;71.96;100992.38;5037829;28;45482;-69
2022/11/14 01:47:29;;;;;;;;;29.25;26.00;;;;;11.54;71.73;100999.44;5020164;28;48039;-68
2022/11/14 01:49:59;;;;;;;;;31.00;26.50;;;;;11.60;71.85;101001.75;5038840;28;45378;-68
2022/11/14 01:52:30;;;;;;;;;27.50;23.50;;;;;11.62;71.47;100999.84;5034883;28;45233;-71
2022/11/14 01:55:00;;;;;;;;;29.75;27.00;;;;;11.35;71.86;100957.81;5030348;28;45430;-70
2022/11/14 01:57:31;;;;;;;;;28.25;25.50;;;;;11.54;71.57;100994.09;5053010;28;45421;-70
2022/11/14 02:00:01;;;;;;;;;29.25;27.00;;;;;11.44;71.62;100983.97;5053095;28;45250;-70
2022/11/14 02:02:26;;;;;;;;;29.00;28.25;;;;;11.49;71.06;101005.06;5051340;28;45349;-70
2022/11/14 02:05:06;;;;;;;;;25.50;24.00;;;;;11.32;71.33;100973.13;5051361;27;45341;-70
2022/11/14 02:07:35;;;;;;;;;30.50;29.25;;;;;11.44;71.82;100992.00;5055952;28;46454;-72
2022/11/14 02:10:09;;;;;;;;;37.00;33.00;;;;;11.38;71.03;100988.81;5056015;28;45288;-72
2022/11/14 02:12:35;;;;;;;;;25.50;24.25;;;;;10.99;71.49;100921.63;5056794;28;45233;-72
2022/11/14 02:15:01;;;;;;;;;34.00;31.00;;;;;11.45;71.75;100991.00;5040473;28;45275;-71
2022/11/14 02:17:26;;;;;;;;;40.50;33.75;;;;;11.38;71.74;101005.69;5042287;28;45648;-73
2022/11/14 02:20:05;;;;;;;;;37.50;31.00;;;;;11.31;71.92;100984.75;5041653;27;44693;-72
2022/11/14 02:22:30;;;;;;;;;35.25;30.00;;;;;11.26;71.77;100991.22;5040301;28;44854;-72
2022/11/14 02:24:56;;;;;;;;;44.75;37.25;;;;;11.27;72.10;100986.78;5040394;28;44739;-72
2022/11/14 02:27:21;;;;;;;;;32.00;28.50;;;;;11.33;72.09;100998.91;5023982;28;45358;-72
2022/11/14 02:29:46;;;;;;;;;34.50;31.00;;;;;11.26;72.45;100990.38;5034803;28;45414;-72
2022/11/14 02:32:12;;;;;;;;;37.75;32.50;;;;;10.97;72.30;100936.00;5033468;28;45304;-72
2022/11/14 02:34:38;;;;;;;;;35.00;32.00;;;;;11.09;72.26;100967.31;5033449;28;45403;-72
2022/11/14 02:37:04;;;;;;;;;29.50;23.50;;;;;10.99;72.17;100956.31;5031594;28;47625;-72
2022/11/14 02:39:29;;;;;;;;;33.75;31.50;;;;;10.90;72.79;100930.16;5032931;28;45398;-72
2022/11/14 02:41:54;;;;;;;;;37.50;33.00;;;;;11.25;72.93;100983.31;5033374;27;45391;-72
2022/11/14 02:44:20;;;;;;;;;36.50;33.75;;;;;11.23;72.66;100975.41;5014617;28;45291;-72
2022/11/14 02:46:45;;;;;;;;;36.75;32.50;;;;;11.21;72.48;100979.94;5015000;28;46961;-72
2022/11/14 02:49:11;;;;;;;;;32.50;32.50;;;;;10.93;72.40;100940.66;5032974;28;45396;-72
2022/11/14 02:51:36;;;;;;;;;35.50;30.75;;;;;10.89;72.66;100936.44;5032685;28;45455;-72
2022/11/14 02:54:02;;;;;;;;;32.50;31.75;;;;;11.17;72.76;100977.56;5033020;28;45488;-73
2022/11/14 02:56:27;;;;;;;;;35.25;32.50;;;;;11.11;72.89;100960.94;5032583;28;46663;-72
2022/11/14 02:58:53;;;;;;;;;34.00;32.25;;;;;11.12;72.17;100967.16;5014539;28;45421;-72
2022/11/14 03:01:18;;;;;;;;;30.25;28.75;;;;;10.90;72.71;100936.34;5014635;28;45335;-71
2022/11/14 03:03:43;;;;;;;;;32.25;28.75;;;;;11.10;72.78;100964.56;5014758;28;45339;-72
2022/11/14 03:06:09;;;;;;;;;28.75;26.25;;;;;11.19;72.71;100956.97;5031357;27;46367;-70
2022/11/14 03:08:34;;;;;;;;;30.75;28.50;;;;;11.21;72.29;100945.25;5031920;28;45371;-69
2022/11/14 03:11:17;;;;;;;;;35.50;29.75;;;;;11.19;72.09;100946.28;5032073;28;45477;-70
2022/11/14 03:13:43;;;;;;;;;29.75;24.00;;;;;11.07;72.65;100942.53;5031658;28;45546;-69
2022/11/14 03:16:10;;;;;;;;;29.25;25.25;;;;;10.71;72.35;100891.19;5031736;28;45706;-70
2022/11/14 03:18:36;;;;;;;;;25.75;24.00;;;;;11.05;72.24;100937.28;5031830;28;45515;-70
2022/11/14 03:21:10;;;;;;;;;29.75;27.00;;;;;10.96;72.31;100939.63;5013851;28;45322;-69
2022/11/14 03:23:36;;;;;;;;;24.00;24.00;;;;;10.90;72.61;100947.03;5031734;28;45417;-69
2022/11/14 03:26:04;;;;;;;;;29.25;27.25;;;;;10.78;72.51;100942.38;5031331;28;46580;-69
2022/11/14 03:28:29;;;;;;;;;23.00;21.75;;;;;10.41;73.09;100878.66;5031456;27;45447;-69
2022/11/14 03:30:54;;;;;;;;;29.25;23.00;;;;;10.14;73.23;100824.19;5031668;28;46128;-69
2022/11/14 03:33:20;;;;;;;;;31.25;24.50;;;;;10.67;73.13;100934.16;5031793;27;45395;-69
2022/11/14 03:35:45;;;;;;;;;27.75;21.75;;;;;10.32;73.04;100887.13;5031459;28;46106;-69
2022/11/14 03:38:10;;;;;;;;;23.00;22.25;;;;;10.74;73.52;100941.72;5031580;28;45239;-70
2022/11/14 03:40:39;;;;;;;;;29.25;24.50;;;;;10.64;73.75;100934.34;5031170;27;45380;-70
2022/11/14 03:43:04;;;;;;;;;24.00;23.25;;;;;10.75;73.07;100947.91;5031665;28;45274;-69
2022/11/14 03:45:30;;;;;;;;;25.75;22.75;;;;;10.30;73.55;100909.50;5029893;28;48018;-71
2022/11/14 03:47:55;;;;;;;;;23.75;22.50;;;;;10.56;73.51;100934.75;5031525;28;45339;-70
2022/11/14 03:50:20;;;;;;;;;28.50;23.75;;;;;10.71;73.29;100941.03;5031426;28;45410;-70
2022/11/14 03:52:48;;;;;;;;;21.25;21.25;;;;;10.57;73.55;100912.47;5031667;28;45466;-70
2022/11/14 03:55:13;;;;;;;;;25.00;20.25;;;;;10.69;73.37;100917.09;5031311;28;46192;-70
2022/11/14 03:57:39;;;;;;;;;21.25;20.75;;;;;10.83;73.48;100934.13;5034007;28;45364;-70
2022/11/14 04:00:05;;;;;;;;;25.75;24.50;;;;;10.65;73.90;100904.91;5034819;27;45460;-69
2022/11/14 04:02:30;;;;;;;;;22.75;21.50;;;;;10.80;73.32;100918.28;5034266;27;45312;-70
2022/11/14 04:04:55;;;;;;;;;19.00;18.25;;;;;10.91;73.49;100922.06;5016175;28;46271;-70
2022/11/14 04:07:21;;;;;;;;;23.50;21.00;;;;;11.01;73.85;100926.88;5034220;28;45345;-70
2022/11/14 04:09:46;;;;;;;;;23.25;20.50;;;;;10.89;73.28;100893.72;5034152;28;45229;-70
2022/11/14 04:12:12;;;;;;;;;30.00;26.75;;;;;10.64;72.77;100864.97;5034346;28;45354;-70
2022/11/14 04:14:37;;;;;;;;;32.75;26.50;;;;;10.89;73.09;100909.75;5034110;28;45547;-69
2022/11/14 04:17:02;;;;;;;;;36.75;28.75;;;;;10.97;73.30;100925.31;5033989;28;45316;-70
2022/11/14 04:19:28;;;;;;;;;31.00;25.50;;;;;10.97;73.62;100920.84;5034637;28;45365;-69
2022/11/14 04:21:53;;;;;;;;;27.25;26.25;;;;;11.05;73.91;100931.94;5034155;28;45819;-70
2022/11/14 04:24:18;;;;;;;;;27.25;23.75;;;;;10.85;73.40;100895.75;5033673;28;46163;-69
2022/11/14 04:26:43;;;;;;;;;30.25;28.00;;;;;11.02;73.23;100918.75;5034208;27;45367;-69
2022/11/14 04:29:09;;;;;;;;;23.50;21.75;;;;;10.84;72.93;100888.69;5033719;28;45397;-69
2022/11/14 04:31:34;;;;;;;;;23.00;21.25;;;;;10.99;73.13;100910.09;5034209;28;45402;-69
2022/11/14 04:33:59;;;;;;;;;25.25;21.75;;;;;11.06;73.59;100927.47;5016185;28;47379;-69
2022/11/14 04:36:25;;;;;;;;;23.00;20.50;;;;;11.10;73.51;100932.53;5033766;28;45423;-70
2022/11/14 04:38:50;;;;;;;;;31.50;30.25;;;;;11.13;73.37;100927.97;5033978;28;45520;-70
2022/11/14 04:41:15;;;;;;;;;21.00;20.25;;;;;11.18;73.46;100936.56;5034177;28;45401;-69
2022/11/14 04:43:41;;;;;;;;;24.00;23.50;;;;;10.95;72.94;100896.06;5033731;28;45399;-69
2022/11/14 04:46:06;;;;;;;;;34.00;26.00;;;;;10.96;73.32;100887.13;5015924;27;45420;-69
2022/11/14 04:48:31;;;;;;;;;24.50;22.50;;;;;11.12;73.04;100913.78;5033666;28;45436;-70
2022/11/14 04:50:57;;;;;;;;;28.50;24.50;;;;;10.92;72.92;100869.56;5015815;28;45388;-70
2022/11/14 04:53:22;;;;;;;;;28.25;24.75;;;;;11.16;73.54;100909.09;5033445;28;46512;-69
2022/11/14 04:55:47;;;;;;;;;31.50;28.00;;;;;11.24;73.29;100918.38;5033524;28;45431;-70
2022/11/14 04:58:13;;;;;;;;;24.00;24.00;;;;;11.16;72.64;100895.72;5015841;28;45432;-69
2022/11/14 05:00:38;;;;;;;;;25.75;22.50;;;;;11.17;72.68;100892.13;5033751;28;45549;-69
2022/11/14 05:03:03;;;;;;;;;27.75;25.25;;;;;11.13;72.48;100891.44;5032990;28;45589;-70
2022/11/14 05:05:30;;;;;;;;;28.75;27.25;;;;;11.17;73.05;100910.81;5033555;28;45442;-70
2022/11/14 05:07:56;;;;;;;;;25.75;23.00;;;;;11.22;73.31;100909.59;5033280;28;45423;-70
2022/11/14 05:10:21;;;;;;;;;24.50;21.00;;;;;11.23;73.82;100905.13;5032247;27;45544;-69
2022/11/14 05:12:46;;;;;;;;;29.75;25.00;;;;;11.28;73.55;100892.31;5031711;27;45547;-70
2022/11/14 05:15:12;;;;;;;;;22.75;22.00;;;;;11.21;73.29;100877.63;5022442;28;45379;-70
2022/11/14 05:17:37;;;;;;;;;22.50;21.25;;;;;11.10;73.50;100852.44;5013823;28;45374;-70
2022/11/14 05:20:03;;;;;;;;;22.50;21.00;;;;;11.31;73.01;100888.63;5013783;27;45353;-70
2022/11/14 05:22:28;;;;;;;;;25.00;20.00;;;;;11.28;73.60;100889.66;5028652;28;45423;-70
2022/11/14 05:24:53;;;;;;;;;23.25;22.50;;;;;11.32;73.76;100891.19;5023442;28;45393;-69
2022/11/14 05:27:19;;;;;;;;;23.75;21.75;;;;;11.33;73.20;100884.91;5033611;28;45441;-69
2022/11/14 05:29:44;;;;;;;;;22.75;20.00;;;;;11.23;73.60;100884.59;5033249;28;45508;-70
2022/11/14 05:32:09;;;;;;;;;22.50;20.75;;;;;11.26;73.58;100892.44;5033332;28;45348;-69
2022/11/14 05:34:35;;;;;;;;;22.00;21.00;;;;;11.11;73.64;100859.50;5033195;28;45314;-69
2022/11/14 05:37:02;;;;;;;;;27.75;23.00;;;;;11.24;73.86;100885.44;5033090;28;45321;-71
2022/11/14 05:39:28;;;;;;;;;27.75;24.75;;;;;11.29;73.86;100886.03;5033465;28;45627;-70
2022/11/14 05:41:53;;;;;;;;;27.50;24.00;;;;;11.18;73.84;100865.31;5032916;28;46350;-71
2022/11/14 05:44:18;;;;;;;;;24.50;21.75;;;;;11.30;74.90;100868.19;5015212;28;46272;-71
2022/11/14 05:46:43;;;;;;;;;26.00;22.00;;;;;11.23;73.44;100859.72;5033051;28;45261;-71
2022/11/14 05:49:09;;;;;;;;;22.25;19.00;;;;;11.19;73.76;100848.34;5033086;28;45373;-70
2022/11/14 05:51:34;;;;;;;;;22.75;21.50;;;;;10.90;73.98;100796.72;5014788;28;46216;-70
2022/11/14 05:53:59;;;;;;;;;22.75;20.50;;;;;11.25;74.00;100852.47;5048492;28;45830;-72
2022/11/14 05:56:26;;;;;;;;;22.25;22.00;;;;;11.05;74.80;100821.63;5015390;28;45327;-72
2022/11/14 05:58:51;;;;;;;;;26.00;21.75;;;;;11.26;74.06;100849.69;5033383;28;45348;-72
2022/11/14 06:01:18;;;;;;;;;27.25;23.25;;;;;11.14;74.13;100825.56;5032667;28;45891;-72
2022/11/14 06:03:46;;;;;;;;;29.75;27.75;;;;;11.14;75.11;100831.75;5033404;28;45461;-72
2022/11/14 06:06:19;;;;;;;;;23.50;22.75;;;;;10.80;74.61;100772.41;5014839;28;45438;-74
2022/11/14 06:08:44;;;;;;;;;24.75;24.25;;;;;11.25;74.72;100833.78;5033207;28;45423;-72
2022/11/14 06:11:18;;;;;;;;;29.50;27.00;;;;;11.26;74.56;100836.34;5033010;27;45402;-71
2022/11/14 06:13:44;;;;;;;;;27.25;25.00;;;;;11.33;74.85;100836.00;5021382;27;45778;-71
2022/11/14 06:16:15;;;;;;;;;23.75;23.50;;;;;11.34;75.28;100843.06;5032897;28;45393;-71
2022/11/14 06:18:41;;;;;;;;;22.75;19.50;;;;;11.18;75.25;100819.94;5031822;28;45300;-71
2022/11/14 06:21:11;;;;;;;;;25.75;23.75;;;;;10.98;74.43;100786.44;5032504;28;46341;-71
2022/11/14 06:23:36;;;;;;;;;27.00;22.25;;;;;11.35;74.99;100845.63;5032669;28;45437;-71
2022/11/14 06:26:09;;;;;;;;;29.25;26.25;;;;;11.27;74.30;100831.88;5032622;28;45254;-71
2022/11/14 06:28:34;;;;;;;;;26.75;22.25;;;;;11.32;74.83;100840.44;5032719;28;45383;-71
2022/11/14 06:31:02;;;;;;;;;24.50;23.25;;;;;11.25;74.95;100823.09;5030479;28;45393;-71
2022/11/14 06:33:33;;;;;;;;;25.75;23.50;;;;;11.44;74.70;100849.53;5023860;28;45420;-71
2022/11/14 06:35:59;;;;;;;;;31.00;23.50;;;;;11.35;74.47;100829.59;5030536;27;45605;-71
2022/11/14 06:38:25;;;;;;;;;25.75;24.00;;;;;11.21;74.82;100806.38;5024349;27;45430;-71
2022/11/14 06:40:51;;;;;;;;;31.75;24.50;;;;;11.41;74.46;100839.03;5031624;28;45630;-71
2022/11/14 06:43:16;;;;;;;;;27.25;26.25;;;;;11.16;73.94;100803.16;5030793;27;45838;-71
2022/11/14 06:45:42;;;;;;;;;27.00;26.75;;;;;11.10;74.80;100806.19;5032557;28;45292;-71
2022/11/14 06:48:07;;;;;;;;;27.25;26.25;;;;;11.21;74.38;100818.91;5032700;28;45293;-71
2022/11/14 06:50:32;;;;;;;;;30.50;27.50;;;;;11.28;74.31;100842.47;5031918;28;46521;-71
2022/11/14 06:52:58;;;;;;;;;26.00;25.00;;;;;11.30;74.28;100858.41;5013768;28;46101;-70
2022/11/14 06:55:24;;;;;;;;;28.25;25.75;;;;;11.14;74.89;100844.25;5032583;28;45290;-71
2022/11/14 06:57:53;;;;;;;;;31.75;29.25;;;;;11.25;74.76;100857.81;5032591;27;45510;-71
2022/11/14 07:00:19;;;;;;;;;23.25;20.25;;;;;10.75;75.06;100777.16;5028839;28;46120;-71
2022/11/14 07:02:45;;;;;;;;;24.00;24.00;;;;;11.06;74.69;100823.34;5025859;28;45568;-71
2022/11/14 07:05:10;;;;;;;;;22.00;19.25;;;;;11.19;74.94;100868.84;5031828;28;45426;-71
2022/11/14 07:07:36;;;;;;;;;24.50;23.00;;;;;11.20;75.14;100867.91;5032111;28;45422;-71
2022/11/14 07:10:01;;;;;;;;;22.25;20.50;;;;;11.13;75.35;100864.75;5030716;28;47792;-71
2022/11/14 07:12:28;;;;;;;;;28.00;21.00;;;;;11.19;74.92;100874.19;5031837;28;45345;-71
2022/11/14 07:14:53;;;;;;;;;20.75;20.25;;;;;11.01;75.09;100862.81;5032286;28;45337;-71
2022/11/14 07:17:19;;;;;;;;;24.00;23.25;;;;;10.93;75.50;100871.25;5031977;28;45490;-71
2022/11/14 07:19:44;;;;;;;;;20.75;17.75;;;;;10.86;75.36;100872.56;5031691;28;46316;-71
2022/11/14 07:22:09;;;;;;;;;22.00;21.25;;;;;10.90;75.36;100882.97;5032058;28;45309;-71
2022/11/14 07:24:35;;;;;;;;;27.00;24.75;;;;;10.65;75.53;100848.00;5031898;28;45348;-71
2022/11/14 07:27:01;;;;;;;;;31.50;23.50;;;;;10.73;75.77;100875.97;5031034;28;45367;-71
2022/11/14 07:29:26;;;;;;;;;20.00;20.00;;;;;10.75;75.98;100895.38;5032500;28;46270;-71
2022/11/14 07:31:51;;;;;;;;;17.50;16.00;;;;;10.00;76.21;100775.19;5034760;28;45367;-71
2022/11/14 07:34:17;;;;;;;;;21.25;21.00;;;;;10.73;76.14;100894.63;5032458;27;46222;-71
2022/11/14 07:36:44;;;;;;;;;24.00;18.50;;;;;10.13;76.14;100774.50;5013455;28;45479;-70
2022/11/14 07:39:09;;;;;;;;;22.75;20.25;;;;;10.81;76.15;100885.31;5013978;28;47519;-71
2022/11/14 07:41:34;;;;;;;;;21.75;16.75;;;;;10.77;75.95;100877.50;5014593;28;45459;-71
2022/11/14 07:44:00;;;;;;;;;16.75;15.75;;;;;10.81;75.27;100871.97;5014435;28;45372;-71
2022/11/14 07:46:25;;;;;;;;;27.75;23.00;;;;;10.83;75.28;100878.94;5014449;28;45376;-71
2022/11/14 07:48:51;;;;;;;;;28.00;23.75;;;;;10.76;75.46;100861.59;5014445;28;45471;-71
2022/11/14 07:51:18;;;;;;;;;22.75;17.50;;;;;10.92;75.76;100882.91;5014114;28;45467;-71
2022/11/14 07:53:44;;;;;;;;;19.00;16.50;;;;;10.81;75.52;100858.63;5014777;28;45284;-71
2022/11/14 07:56:10;;;;;;;;;17.25;16.25;;;;;10.99;75.58;100884.25;5014557;28;45472;-71
2022/11/14 07:58:36;;;;;;;;;24.50;20.25;;;;;10.91;75.13;100878.50;4996768;28;48193;-71
2022/11/14 08:01:03;;;;;;;;;20.00;18.75;;;;;10.77;74.99;100850.81;5014183;28;45301;-71
2022/11/14 08:03:29;;;;;;;;;18.00;18.00;;;;;10.88;75.10;100854.69;5014585;28;45424;-71
2022/11/14 08:06:23;;;;;;;;;18.50;15.50;;;;;11.05;74.80;100875.00;5083202;27;45412;-71
2022/11/14 08:08:49;;;;;;;;;16.25;13.25;;;;;10.92;74.94;100849.06;5023027;28;46426;-70
2022/11/14 08:11:14;;;;;;;;;15.50;15.50;;;;;11.10;74.85;100878.28;5014592;28;45375;-71
2022/11/14 08:13:39;;;;;;;;;17.00;16.75;;;;;11.05;74.26;100875.91;5027190;28;45471;-71
2022/11/14 08:16:07;;;;;;;;;15.50;15.50;;;;;10.92;74.33;100850.88;5034180;28;45350;-71
2022/11/14 08:18:32;;;;;;;;;17.25;15.00;;;;;11.07;74.51;100881.97;5034468;28;46335;-71
2022/11/14 08:20:58;;;;;;;;;17.75;16.25;;;;;10.51;74.54;100782.97;5034450;27;45249;-70
2022/11/14 08:23:23;;;;;;;;;16.00;15.75;;;;;11.04;74.59;100870.63;5034419;28;45182;-70
2022/11/14 08:25:48;;;;;;;;;15.25;14.25;;;;;10.98;74.69;100869.19;5034347;28;45222;-71
2022/11/14 08:28:14;;;;;;;;;15.25;14.75;;;;;10.99;74.61;100859.38;5034445;28;46539;-71
2022/11/14 08:30:39;;;;;;;;;15.25;15.25;;;;;11.11;74.98;100882.66;5034076;28;45283;-71
2022/11/14 08:33:06;;;;;;;;;17.25;15.75;;;;;11.11;74.11;100880.84;5034412;27;45263;-70
2022/11/14 08:35:32;;;;;;;;;17.25;17.25;;;;;10.91;74.61;100843.81;5034197;28;45534;-71
2022/11/14 08:37:57;;;;;;;;;16.50;15.75;;;;;10.91;75.17;100839.31;5033663;28;47116;-70
2022/11/14 08:40:23;;;;;;;;;21.50;18.25;;;;;11.07;74.86;100873.13;5033843;28;45395;-71
2022/11/14 08:42:48;;;;;;;;;20.75;17.00;;;;;11.03;75.00;100875.09;5033342;27;45360;-71
2022/11/14 08:45:14;;;;;;;;;24.25;21.50;;;;;11.10;74.84;100889.81;5033649;28;45387;-71
2022/11/14 08:47:39;;;;;;;;;16.25;15.25;;;;;11.10;74.99;100879.13;5033769;28;46244;-71
2022/11/14 08:50:04;;;;;;;;;18.50;17.50;;;;;11.18;74.91;100881.34;5033542;28;45360;-70
2022/11/14 08:52:30;;;;;;;;;15.75;14.50;;;;;11.27;75.35;100885.28;5034061;28;45383;-71
2022/11/14 08:54:55;;;;;;;;;18.50;18.50;;;;;11.33;74.94;100879.56;5034056;28;45504;-70
2022/11/14 08:57:20;;;;;;;;;21.00;18.50;;;;;11.30;75.02;100873.53;5016053;28;45612;-70
2022/11/14 08:59:46;;;;;;;;;25.75;19.75;;;;;11.22;74.87;100866.84;5033512;28;45402;-70
2022/11/14 09:02:15;;;;;;;;;20.75;19.75;;;;;11.30;74.52;100871.75;5033827;28;45653;-71
2022/11/14 09:04:41;;;;;;;;;23.00;22.25;;;;;11.34;74.58;100889.31;5033854;28;45288;-69
2022/11/14 09:07:06;;;;;;;;;23.25;21.25;;;;;11.41;74.83;100887.13;5033506;28;45775;-70
2022/11/14 09:09:32;;;;;;;;;25.00;17.25;;;;;11.24;73.85;100854.28;5033805;27;45387;-70
2022/11/14 09:11:57;;;;;;;;;19.00;17.75;;;;;11.50;74.60;100883.00;5033925;28;45321;-70
2022/11/14 09:14:23;;;;;;;;;23.75;21.50;;;;;11.24;74.50;100840.94;5033217;28;45416;-70
2022/11/14 09:16:48;;;;;;;;;24.25;18.75;;;;;11.55;74.20;100884.47;5015799;27;45985;-70
2022/11/14 09:19:14;;;;;;;;;14.50;13.50;;;;;11.27;74.52;100826.53;5033484;28;45366;-71
2022/11/14 09:21:39;;;;;;;;;20.50;20.00;;;;;11.62;73.58;100858.25;5033792;27;45467;-70
2022/11/14 09:24:05;;;;;;;;;21.00;20.50;;;;;11.51;73.39;100834.88;5033661;28;45534;-71
2022/11/14 09:26:30;;;;;;;;;21.50;16.25;;;;;11.84;73.21;100878.28;5033101;28;45432;-70
2022/11/14 09:28:56;;;;;;;;;24.25;23.00;;;;;11.93;73.81;100875.00;5033274;28;45369;-70
2022/11/14 09:31:21;;;;;;;;;26.25;23.00;;;;;11.99;72.56;100866.66;5033399;28;45339;-71
2022/11/14 09:33:47;;;;;;;;;18.00;18.00;;;;;12.23;72.27;100869.56;5033577;28;45299;-69
2022/11/14 09:36:14;;;;;;;;;20.50;20.25;;;;;12.38;71.83;100875.75;5033360;28;46389;-70
2022/11/14 09:38:41;;;;;;;;;21.75;20.75;;;;;12.50;71.10;100881.25;5033547;28;45277;-69
2022/11/14 09:41:23;;;;;;;;;22.75;21.25;;;;;12.54;71.08;100872.09;5033577;28;45392;-70
2022/11/14 09:44:28;;;;;;;;;19.50;17.75;;;;;12.47;70.83;100874.31;5033387;28;45407;-70
2022/11/14 09:47:02;;;;;;;;;22.00;20.25;;;;;12.52;71.01;100858.78;5033202;28;45287;-70
2022/11/14 09:49:45;;;;;;;;;18.75;17.50;;;;;12.82;70.76;100864.88;5032931;28;45298;-70
2022/11/14 09:52:29;;;;;;;;;16.50;15.75;;;;;12.73;69.68;100861.88;5032857;28;45338;-71
2022/11/14 09:55:01;;;;;;;;;21.50;20.50;;;;;12.74;70.08;100855.56;5032465;28;45391;-71
2022/11/14 09:57:27;;;;;;;;;22.25;19.00;;;;;12.87;69.74;100839.53;5032772;28;45873;-72
2022/11/14 09:59:55;;;;;;;;;20.00;19.75;;;;;13.11;69.26;100855.75;5033258;28;45383;-71
2022/11/14 10:02:51;;;;;;;;;18.25;17.50;;;;;13.33;69.05;100862.31;5032974;28;45387;-71
2022/11/14 10:05:30;;;;;;;;;23.00;22.25;;;;;13.56;67.97;100858.03;5033169;28;45430;-72
2022/11/14 10:08:01;;;;;;;;;19.75;19.00;;;;;13.75;66.98;100872.84;5015087;28;47771;-71
2022/11/14 10:10:52;;;;;;;;;17.25;15.50;;;;;13.92;66.24;100871.66;5015126;28;45394;-70
2022/11/14 10:13:39;;;;;;;;;18.25;17.00;;;;;14.00;65.68;100877.31;5032508;28;45394;-71
2022/11/14 10:16:32;;;;;;;;;17.75;16.00;;;;;13.97;65.00;100869.50;5032694;27;45347;-71
2022/11/14 10:19:06;;;;;;;;;16.75;16.75;;;;;13.92;65.83;100856.41;5033143;28;45530;-72
2022/11/14 10:21:31;;;;;;;;;19.50;17.25;;;;;14.14;65.42;100873.63;5033429;28;45400;-70
2022/11/14 10:24:36;;;;;;;;;20.75;16.50;;;;;14.24;65.53;100857.75;5033476;28;45400;-72
2022/11/14 10:27:02;;;;;;;;;24.50;19.00;;;;;14.34;65.51;100848.03;5031469;28;45324;-71
2022/11/14 10:29:30;;;;;;;;;18.00;18.00;;;;;14.36;64.74;100859.53;5032846;28;45582;-73
2022/11/14 10:32:36;;;;;;;;;15.25;14.75;;;;;14.39;64.60;100843.19;5032885;28;45302;-72
2022/11/14 10:35:17;;;;;;;;;15.50;14.75;;;;;14.50;64.33;100854.97;4970980;28;45466;-71
2022/11/14 10:38:06;;;;;;;;;14.00;14.00;;;;;14.37;65.28;100812.91;4970813;28;45512;-71
2022/11/14 10:40:44;;;;;;;;;18.75;17.25;;;;;14.63;64.18;100835.19;4960241;28;46228;-72
2022/11/14 10:43:38;;;;;;;;;18.50;17.25;;;;;14.68;64.15;100832.13;4954040;28;46425;-71
2022/11/14 10:46:14;;;;;;;;;16.25;15.50;;;;;14.48;63.93;100798.69;4971279;28;45425;-72
2022/11/14 10:48:48;;;;;;;;;15.75;12.75;;;;;14.60;63.56;100829.16;4970750;28;45448;-72
2022/11/14 10:51:28;;;;;;;;;16.50;15.50;;;;;14.65;63.79;100835.06;4970781;28;45722;-72
2022/11/14 10:54:05;;;;;;;;;20.25;16.75;;;;;14.73;64.26;100826.44;4970817;28;45426;-73
2022/11/14 10:56:31;;;;;;;;;17.00;16.25;;;;;14.73;63.38;100813.00;4970659;28;45406;-72
2022/11/14 10:58:57;;;;;;;;;12.50;12.50;;;;;14.76;63.05;100819.00;4970996;28;45489;-71
2022/11/14 11:01:36;;;;;;;;;17.25;16.00;;;;;14.82;62.93;100822.19;4970429;28;46320;-71
2022/11/14 11:04:10;;;;;;;;;17.00;16.50;;;;;14.93;64.08;100815.03;4970208;28;45400;-72
2022/11/14 11:06:36;;;;;;;;;14.25;14.00;;;;;14.71;63.87;100762.13;4971016;28;45404;-72
2022/11/14 11:11:55;;;;;;;;;17.75;15.50;;;;;15.06;61.85;100800.66;5012397;28;45360;-73
2022/11/14 11:14:20;;;;;;;;;16.25;12.25;;;;;14.88;62.34;100759.97;5030263;28;45439;-72